Debary, FL

10:11 PM EDT on May 28, 2015 (GMT -0400)
New Smyrna Beach Municipal | | Change Station
CLOSE
Current Station
Airport
Location: New Smyrna Beach,
Elevation: 10 ft
Nearby Weather Stations

Elev 10 ft 29.06 °N, 80.95 °W | Updated 24 minutes ago

Clear
Clear
75 °F
Feels Like 75 °F
N
12
Wind Variable Wind from ENE

Today
High -- | Low -- °F
--% Chance of Precip.
Yesterday
High -- | Low -- °F
Precip. -- in
6:28 AM 8:17 PM
Waxing Gibbous, 80% visible
Pressure 30.15 in
Visibility 10.0 miles
Clouds Few 3800 ft
Dew Point 61 °F
Humidity 61%
Rainfall 0.00 in
Snow Depth Not available.
UV 0 out of 12
Pollen 4.90 out of 12
Air Quality Not available.
Flu Activity Sporadic
METAR KEVB 290147Z 07010KT 10SM FEW038 24/16 A3015 RMK LAST

More Conditions Fewer Conditions

Pressure 30.15 in
Visibility 10.0 miles
Clouds Few 3800 ft
Dew Point 61 °F
Humidity 61%
Rainfall 0.00 in
Snow Depth Not available.
UV 0 out of 12
Pollen 4.90 out of 12
Air Quality Not available.
Flu Activity Sporadic
METAR KEVB 290147Z 07010KT 10SM FEW038 24/16 A3015 RMK LAST

More Conditions Fewer Conditions

10-Day Weather Forecast

Almanac

Astronomy

May. 28, 2015 Rise Set
Actual Time
Civil Twilight
Nautical Twilight
Astronomical Twilight
Moon
Length of Visible Light
Length of Day
Tomorrow will be .
, % of the Moon is Illuminated

Today's Extremes

State Highs State Lows

Community

WunderPhotos

Upload Photos

1,825,128 photos uploaded!

WunderBlogs® & News

Nearby

Air Quality

  Air Quality AQ Index Pollutant
Not available.

Snow Depth

Station Depth Elevation

Earthquake Activity

City Distance Mag. Time & Date
Minimum magnitude displayed is 2.5.

Coastal Water Temperatures

Place Temperature

Stations

Nearby Weather Stations

Station Location Temp. Windchill Dew Point Humidity Wind Precip. Elev Updated Type